createdAt,value
2018-10-06T00:01:00.458Z,8.60
2018-10-06T00:03:29.310Z,8.50
2018-10-06T00:05:58.258Z,8.50
2018-10-06T00:08:27.092Z,8.50
2018-10-06T00:10:56.000Z,8.60
2018-10-06T00:13:24.800Z,8.50
2018-10-06T00:15:53.645Z,8.50
2018-10-06T00:18:22.621Z,8.50
2018-10-06T00:20:51.509Z,8.40
2018-10-06T00:23:20.539Z,8.30
2018-10-06T00:25:49.299Z,8.30
2018-10-06T00:28:18.124Z,8.30
2018-10-06T00:30:46.983Z,8.20
2018-10-06T00:33:15.750Z,8.10
2018-10-06T00:35:44.636Z,8.10
2018-10-06T00:38:23.177Z,8.10
2018-10-06T00:40:52.353Z,8.10
2018-10-06T00:43:21.264Z,8.10
2018-10-06T00:45:50.335Z,8.10
2018-10-06T00:48:19.203Z,8.00
2018-10-06T00:50:48.018Z,7.90
2018-10-06T00:53:16.909Z,7.80
2018-10-06T00:55:45.730Z,7.90
2018-10-06T00:58:14.559Z,7.90
2018-10-06T01:00:43.329Z,7.90
2018-10-06T01:03:19.076Z,7.90
2018-10-06T01:05:47.915Z,7.90
2018-10-06T01:08:16.881Z,7.90
2018-10-06T01:10:45.651Z,7.90
2018-10-06T01:13:14.755Z,7.90
2018-10-06T01:15:43.602Z,7.90
2018-10-06T01:18:12.374Z,8.00
2018-10-06T01:20:41.378Z,7.80
2018-10-06T01:23:10.826Z,7.80
2018-10-06T01:25:39.636Z,7.80
2018-10-06T01:28:08.477Z,8.00
2018-10-06T01:30:37.292Z,8.30
2018-10-06T01:33:06.119Z,8.50
2018-10-06T01:35:34.948Z,8.60
2018-10-06T01:38:03.839Z,8.70
2018-10-06T01:40:32.676Z,8.70
2018-10-06T01:43:01.500Z,8.70
2018-10-06T01:45:30.364Z,8.50
2018-10-06T01:47:59.119Z,8.40
2018-10-06T01:50:28.108Z,8.40
2018-10-06T01:52:56.956Z,8.40
2018-10-06T01:55:25.831Z,8.30
2018-10-06T01:57:54.601Z,8.10
2018-10-06T02:00:23.420Z,8.00
2018-10-06T02:02:52.269Z,8.00
2018-10-06T02:05:21.049Z,8.00
2018-10-06T02:07:49.926Z,8.00
2018-10-06T02:10:19.291Z,8.00
2018-10-06T02:12:48.318Z,8.00
2018-10-06T02:15:17.154Z,7.90
2018-10-06T02:17:45.976Z,7.80
2018-10-06T02:20:14.842Z,7.80
2018-10-06T02:22:43.889Z,7.60
2018-10-06T02:25:12.844Z,7.40
2018-10-06T02:27:41.615Z,7.30
2018-10-06T02:30:10.635Z,7.40
2018-10-06T02:32:39.429Z,7.50
2018-10-06T02:35:08.380Z,7.70
2018-10-06T02:37:37.256Z,7.80
2018-10-06T02:40:06.288Z,7.90
2018-10-06T02:42:35.107Z,8.10
2018-10-06T02:45:05.016Z,8.10
2018-10-06T02:47:34.121Z,8.20
2018-10-06T02:50:03.041Z,8.30
2018-10-06T02:52:32.031Z,8.30
2018-10-06T02:55:00.897Z,8.50
2018-10-06T02:57:29.717Z,8.50
2018-10-06T02:59:58.540Z,8.70
2018-10-06T03:02:27.354Z,8.70
2018-10-06T03:04:56.113Z,8.80
2018-10-06T03:07:24.901Z,8.70
2018-10-06T03:09:53.705Z,8.80
2018-10-06T03:12:22.578Z,8.80
2018-10-06T03:14:51.642Z,8.80
2018-10-06T03:17:20.707Z,8.70
2018-10-06T03:19:49.544Z,8.50
2018-10-06T03:22:18.361Z,8.40
2018-10-06T03:24:47.957Z,8.30
2018-10-06T03:27:17.259Z,8.20
2018-10-06T03:29:46.147Z,8.20
2018-10-06T03:32:14.970Z,8.30
2018-10-06T03:34:43.803Z,8.30
2018-10-06T03:37:12.589Z,8.30
2018-10-06T03:39:41.451Z,8.40
2018-10-06T03:42:10.259Z,8.50
2018-10-06T03:44:39.110Z,8.60
2018-10-06T03:47:08.018Z,8.50
2018-10-06T03:49:36.801Z,8.50
2018-10-06T03:52:05.596Z,8.30
2018-10-06T03:54:34.387Z,8.20
2018-10-06T03:57:03.160Z,8.20
2018-10-06T03:59:32.027Z,8.20
2018-10-06T04:02:00.857Z,8.30
2018-10-06T04:04:29.700Z,8.30
2018-10-06T04:06:58.553Z,8.40
2018-10-06T04:09:27.371Z,8.50
2018-10-06T04:11:56.188Z,8.50
2018-10-06T04:14:25.049Z,8.60
2018-10-06T04:16:53.795Z,8.50
2018-10-06T04:19:22.554Z,8.60
2018-10-06T04:21:51.301Z,8.60
2018-10-06T04:24:20.068Z,8.70
2018-10-06T04:26:49.035Z,8.70
2018-10-06T04:29:17.841Z,8.80
2018-10-06T04:31:46.583Z,8.90
2018-10-06T04:34:15.443Z,9.00
2018-10-06T04:36:44.263Z,9.10
2018-10-06T04:39:13.543Z,9.10
2018-10-06T04:41:42.469Z,9.30
2018-10-06T04:44:11.276Z,9.30
2018-10-06T04:46:40.502Z,9.30
2018-10-06T04:49:09.404Z,9.30
2018-10-06T04:51:38.199Z,9.50
2018-10-06T04:54:07.325Z,9.50
2018-10-06T04:56:36.064Z,9.60
2018-10-06T04:59:04.876Z,9.70
2018-10-06T05:01:33.989Z,9.70
2018-10-06T05:04:02.801Z,9.80
2018-10-06T05:06:31.608Z,9.80
2018-10-06T05:09:00.406Z,9.80
2018-10-06T05:11:29.282Z,9.80
2018-10-06T05:13:58.060Z,9.80
2018-10-06T05:16:26.847Z,9.80
2018-10-06T05:18:55.676Z,9.70
2018-10-06T05:21:24.485Z,9.60
2018-10-06T05:23:53.275Z,9.50
2018-10-06T05:26:22.173Z,9.40
2018-10-06T05:28:51.099Z,9.40
2018-10-06T05:31:19.991Z,9.30
2018-10-06T05:33:48.811Z,9.20
2018-10-06T05:36:17.722Z,9.20
2018-10-06T05:38:46.559Z,9.20
2018-10-06T05:41:15.429Z,9.40
2018-10-06T05:43:44.240Z,9.50
2018-10-06T05:46:13.077Z,9.60
2018-10-06T05:48:41.923Z,9.70
2018-10-06T05:51:10.709Z,9.80
2018-10-06T05:53:39.558Z,10.00
2018-10-06T05:56:08.377Z,10.10
2018-10-06T05:58:37.206Z,10.20
2018-10-06T06:01:06.057Z,10.30
2018-10-06T06:03:34.877Z,10.40
2018-10-06T06:06:03.759Z,10.50
2018-10-06T06:08:32.563Z,10.50
2018-10-06T06:11:01.413Z,10.60
2018-10-06T06:13:30.281Z,10.70
2018-10-06T06:15:59.050Z,10.80
2018-10-06T06:18:27.956Z,11.10
2018-10-06T06:20:56.796Z,11.30
2018-10-06T06:23:25.668Z,11.50
2018-10-06T06:25:54.563Z,11.50
2018-10-06T06:28:23.367Z,11.70
2018-10-06T06:30:52.311Z,11.90
2018-10-06T06:33:21.047Z,12.10
2018-10-06T06:35:49.827Z,12.20
2018-10-06T06:38:18.690Z,12.30
2018-10-06T06:40:47.455Z,12.40
2018-10-06T06:43:16.307Z,12.50
2018-10-06T06:45:45.779Z,12.60
2018-10-06T06:48:14.541Z,12.70
2018-10-06T06:50:43.397Z,12.90
2018-10-06T06:53:12.228Z,13.00
2018-10-06T06:55:41.426Z,13.10
2018-10-06T06:58:10.224Z,13.20
2018-10-06T07:00:39.060Z,13.30
2018-10-06T07:03:08.702Z,13.30
2018-10-06T07:05:37.626Z,13.30
2018-10-06T07:08:06.512Z,13.30
2018-10-06T07:10:35.495Z,13.20
2018-10-06T07:13:04.393Z,13.20
2018-10-06T07:15:33.175Z,13.20
2018-10-06T07:18:01.993Z,13.20
2018-10-06T07:20:31.001Z,13.10
2018-10-06T07:22:59.823Z,13.00
2018-10-06T07:25:28.622Z,12.90
2018-10-06T07:27:57.476Z,12.90
2018-10-06T07:30:26.312Z,13.10
2018-10-06T07:32:55.428Z,13.20
2018-10-06T07:35:24.220Z,13.40
2018-10-06T07:37:53.035Z,13.50
2018-10-06T07:40:21.882Z,13.70
2018-10-06T07:42:50.693Z,13.80
2018-10-06T07:45:19.555Z,14.00
2018-10-06T07:47:48.443Z,14.30
2018-10-06T07:50:17.265Z,14.40
2018-10-06T07:52:46.084Z,14.70
2018-10-06T07:55:14.985Z,15.10
2018-10-06T07:57:43.808Z,15.50
2018-10-06T08:00:12.697Z,15.90
2018-10-06T08:02:41.501Z,16.50
2018-10-06T08:05:10.445Z,16.90
2018-10-06T08:07:39.479Z,17.40
2018-10-06T08:10:08.339Z,17.90
2018-10-06T08:12:37.134Z,18.60
2018-10-06T08:15:05.977Z,19.10
2018-10-06T08:17:35.149Z,19.50
2018-10-06T08:20:04.003Z,19.80
2018-10-06T08:22:32.953Z,20.20
2018-10-06T08:25:01.783Z,20.50
2018-10-06T08:27:30.670Z,20.80
2018-10-06T08:29:59.752Z,20.70
2018-10-06T08:32:28.619Z,20.70
2018-10-06T08:34:57.487Z,20.70
2018-10-06T08:37:26.314Z,20.70
2018-10-06T08:39:55.251Z,20.70
2018-10-06T08:42:24.106Z,20.80
2018-10-06T08:44:52.973Z,21.10
2018-10-06T08:47:21.832Z,21.70
2018-10-06T08:49:50.758Z,22.00
2018-10-06T08:52:19.608Z,22.10
2018-10-06T08:54:48.445Z,22.10
2018-10-06T08:57:17.335Z,22.00
2018-10-06T08:59:46.208Z,21.70
2018-10-06T09:02:15.172Z,22.00
2018-10-06T09:04:44.098Z,22.50
2018-10-06T09:07:13.385Z,22.60
2018-10-06T09:09:42.935Z,22.50
2018-10-06T09:12:11.881Z,22.50
2018-10-06T09:14:40.751Z,22.40
2018-10-06T09:17:09.622Z,22.40
2018-10-06T09:19:38.511Z,22.30
2018-10-06T09:22:07.488Z,22.20
2018-10-06T09:24:36.711Z,22.20
2018-10-06T09:27:05.562Z,22.30
2018-10-06T09:29:34.479Z,22.40
2018-10-06T09:32:03.560Z,22.80
2018-10-06T09:34:32.356Z,22.90
2018-10-06T09:37:01.426Z,22.70
2018-10-06T09:39:30.314Z,23.10
2018-10-06T09:41:59.189Z,23.20
2018-10-06T09:44:28.080Z,23.40
2018-10-06T09:46:56.903Z,23.40
2018-10-06T09:49:25.753Z,23.30
2018-10-06T09:51:54.583Z,23.20
2018-10-06T09:54:23.367Z,23.20
2018-10-06T09:56:52.362Z,23.10
2018-10-06T09:59:21.321Z,23.20
2018-10-06T10:01:56.311Z,23.60
2018-10-06T10:04:25.139Z,23.80
2018-10-06T10:06:54.122Z,24.10
2018-10-06T10:09:23.101Z,24.20
2018-10-06T10:11:51.986Z,24.40
2018-10-06T10:14:21.156Z,24.40
2018-10-06T10:16:50.129Z,24.40
2018-10-06T10:19:18.998Z,24.40
2018-10-06T10:21:48.036Z,24.10
2018-10-06T10:24:16.798Z,23.80
2018-10-06T10:26:45.699Z,23.70
2018-10-06T10:29:14.881Z,23.80
2018-10-06T10:31:43.798Z,23.80
2018-10-06T10:34:13.093Z,23.60
2018-10-06T10:36:41.883Z,23.70
2018-10-06T10:39:10.843Z,23.50
2018-10-06T10:41:39.677Z,23.60
2018-10-06T10:44:08.691Z,23.40
2018-10-06T10:46:37.568Z,23.30
2018-10-06T10:49:06.780Z,23.30
2018-10-06T10:51:35.668Z,23.50
2018-10-06T10:54:04.483Z,23.50
2018-10-06T10:56:33.360Z,23.60
2018-10-06T10:59:02.320Z,23.80
2018-10-06T11:01:31.276Z,24.00
2018-10-06T11:04:00.222Z,24.60
2018-10-06T11:06:29.165Z,25.10
2018-10-06T11:08:58.099Z,25.20
2018-10-06T11:11:26.939Z,25.20
2018-10-06T11:13:56.190Z,25.30
2018-10-06T11:16:25.197Z,25.70
2018-10-06T11:18:54.134Z,26.20
2018-10-06T11:21:22.936Z,26.90
2018-10-06T11:23:51.824Z,27.50
2018-10-06T11:26:20.720Z,28.20
2018-10-06T11:28:49.576Z,28.80
2018-10-06T11:31:18.736Z,29.20
2018-10-06T11:33:47.633Z,29.30
2018-10-06T11:36:16.546Z,29.20
2018-10-06T11:38:45.456Z,29.50
2018-10-06T11:41:14.392Z,29.60
2018-10-06T11:43:43.305Z,29.30
2018-10-06T11:46:12.180Z,29.00
2018-10-06T11:48:41.048Z,28.90
2018-10-06T11:51:09.907Z,29.10
2018-10-06T11:53:38.998Z,28.70
2018-10-06T11:56:07.916Z,28.70
2018-10-06T11:58:36.804Z,28.70
2018-10-06T12:01:05.879Z,28.70
2018-10-06T12:03:34.798Z,28.80
2018-10-06T12:06:06.059Z,29.00
2018-10-06T12:08:35.137Z,30.10
2018-10-06T12:11:04.633Z,30.90
2018-10-06T12:13:33.595Z,30.90
2018-10-06T12:16:02.477Z,30.70
2018-10-06T12:18:31.387Z,30.90
2018-10-06T12:21:00.287Z,31.20
2018-10-06T12:23:29.083Z,31.20
2018-10-06T12:25:58.476Z,31.60
2018-10-06T12:28:27.306Z,32.30
2018-10-06T12:30:56.345Z,32.50
2018-10-06T12:33:25.260Z,32.30
2018-10-06T12:35:54.349Z,32.20
2018-10-06T12:38:23.357Z,32.00
2018-10-06T12:40:52.218Z,32.50
2018-10-06T12:43:21.051Z,32.20
2018-10-06T12:45:50.458Z,32.20
2018-10-06T12:48:19.374Z,32.20
2018-10-06T12:50:48.658Z,33.00
2018-10-06T12:53:17.571Z,32.70
2018-10-06T12:55:46.477Z,33.10
2018-10-06T12:58:15.321Z,33.20
2018-10-06T13:00:44.495Z,31.70
2018-10-06T13:03:13.286Z,30.30
2018-10-06T13:05:42.337Z,29.40
2018-10-06T13:08:11.121Z,29.00
2018-10-06T13:10:40.009Z,29.50
2018-10-06T13:13:08.877Z,29.70
2018-10-06T13:15:37.833Z,30.40
2018-10-06T13:18:06.748Z,30.10
2018-10-06T13:20:35.650Z,29.20
2018-10-06T13:23:04.721Z,29.20
2018-10-06T13:25:33.602Z,29.20
2018-10-06T13:28:02.432Z,29.90
2018-10-06T13:30:31.276Z,30.40
2018-10-06T13:33:00.178Z,31.00
2018-10-06T13:35:29.115Z,31.70
2018-10-06T13:38:02.142Z,31.70
2018-10-06T13:40:31.061Z,32.60
2018-10-06T13:43:00.029Z,33.50
2018-10-06T13:45:29.415Z,33.10
2018-10-06T13:47:58.196Z,32.70
2018-10-06T13:50:27.096Z,32.30
2018-10-06T13:52:56.021Z,32.20
2018-10-06T13:55:24.979Z,31.40
2018-10-06T13:57:53.886Z,31.20
2018-10-06T14:00:22.963Z,30.80
2018-10-06T14:02:51.837Z,30.70
2018-10-06T14:05:20.693Z,30.70
2018-10-06T14:07:50.458Z,30.50
2018-10-06T14:10:19.294Z,31.10
2018-10-06T14:12:48.112Z,31.50
2018-10-06T14:15:17.073Z,31.00
2018-10-06T14:17:45.920Z,30.90
2018-10-06T14:20:15.036Z,30.40
2018-10-06T14:22:43.815Z,29.70
2018-10-06T14:25:12.666Z,28.70
2018-10-06T14:27:41.578Z,27.70
2018-10-06T14:30:10.391Z,26.70
2018-10-06T14:32:40.178Z,26.00
2018-10-06T14:35:08.979Z,25.70
2018-10-06T14:37:38.266Z,25.40
2018-10-06T14:40:07.698Z,25.10
2018-10-06T14:42:36.501Z,24.90
2018-10-06T14:45:05.364Z,24.80
2018-10-06T14:47:34.235Z,25.00
2018-10-06T14:50:03.228Z,25.10
2018-10-06T14:52:32.244Z,25.00
2018-10-06T14:55:01.050Z,24.80
2018-10-06T14:57:36.206Z,24.50
2018-10-06T15:00:05.497Z,24.20
2018-10-06T15:02:34.339Z,23.90
2018-10-06T15:05:03.329Z,23.80
2018-10-06T15:07:34.697Z,23.50
2018-10-06T15:10:03.574Z,23.40
2018-10-06T15:12:32.450Z,23.30
2018-10-06T15:15:01.703Z,23.20
2018-10-06T15:17:30.552Z,23.10
2018-10-06T15:19:59.479Z,22.90
2018-10-06T15:22:28.361Z,22.70
2018-10-06T15:24:57.221Z,22.70
2018-10-06T15:27:26.045Z,22.50
2018-10-06T15:29:54.930Z,22.20
2018-10-06T15:32:23.802Z,21.90
2018-10-06T15:34:52.739Z,21.90
2018-10-06T15:37:21.719Z,21.80
2018-10-06T15:39:50.821Z,21.70
2018-10-06T15:42:19.787Z,21.60
2018-10-06T15:44:48.931Z,21.50
2018-10-06T15:47:17.925Z,21.30
2018-10-06T15:49:46.876Z,21.30
2018-10-06T15:52:15.681Z,21.20
2018-10-06T15:54:44.594Z,21.10
2018-10-06T15:57:13.412Z,20.90
2018-10-06T15:59:42.247Z,20.80
2018-10-06T16:02:11.910Z,20.70
2018-10-06T16:04:40.833Z,20.50
2018-10-06T16:07:09.641Z,20.40
2018-10-06T16:09:38.740Z,20.30
2018-10-06T16:12:07.627Z,20.10
2018-10-06T16:14:36.681Z,20.00
2018-10-06T16:17:05.498Z,19.90
2018-10-06T16:19:34.313Z,19.80
2018-10-06T16:22:03.182Z,19.70
2018-10-06T16:24:32.068Z,19.70
2018-10-06T16:27:00.923Z,19.50
2018-10-06T16:29:29.890Z,19.40
2018-10-06T16:31:59.245Z,19.20
2018-10-06T16:34:28.180Z,19.00
2018-10-06T16:36:57.030Z,18.90
2018-10-06T16:39:26.044Z,18.80
2018-10-06T16:41:54.888Z,18.70
2018-10-06T16:44:23.740Z,18.60
2018-10-06T16:46:52.620Z,18.50
2018-10-06T16:49:21.396Z,18.30
2018-10-06T16:51:50.293Z,18.00
2018-10-06T16:54:19.093Z,17.70
2018-10-06T16:56:48.191Z,17.50
2018-10-06T16:59:17.659Z,17.50
2018-10-06T17:01:46.696Z,17.50
2018-10-06T17:04:16.037Z,17.50
2018-10-06T17:06:45.027Z,17.40
2018-10-06T17:09:14.485Z,17.40
2018-10-06T17:11:43.360Z,17.30
2018-10-06T17:14:12.149Z,17.20
2018-10-06T17:16:41.028Z,17.00
2018-10-06T17:19:09.830Z,16.90
2018-10-06T17:21:39.050Z,16.80
2018-10-06T17:24:07.892Z,16.80
2018-10-06T17:26:36.667Z,16.80
2018-10-06T17:29:05.954Z,16.60
2018-10-06T17:31:34.905Z,16.50
2018-10-06T17:34:03.721Z,16.40
2018-10-06T17:36:32.632Z,16.20
2018-10-06T17:39:01.577Z,16.10
2018-10-06T17:41:30.458Z,16.10
2018-10-06T17:43:59.339Z,16.00
2018-10-06T17:46:28.302Z,16.00
2018-10-06T17:48:57.347Z,16.00
2018-10-06T17:51:27.304Z,16.00
2018-10-06T17:53:56.152Z,16.00
2018-10-06T17:56:25.193Z,16.10
2018-10-06T17:58:54.138Z,16.20
2018-10-06T18:01:23.859Z,16.20
2018-10-06T18:03:53.235Z,16.30
2018-10-06T18:06:27.722Z,16.40
2018-10-06T18:08:57.996Z,16.30
2018-10-06T18:11:27.161Z,16.30
2018-10-06T18:13:55.999Z,16.20
2018-10-06T18:16:24.839Z,16.20
2018-10-06T18:18:53.771Z,16.10
2018-10-06T18:21:22.787Z,16.10
2018-10-06T18:23:51.462Z,15.90
2018-10-06T18:26:20.616Z,15.90
2018-10-06T18:28:49.436Z,15.90
2018-10-06T18:31:18.339Z,15.90
2018-10-06T18:33:47.203Z,15.80
2018-10-06T18:36:16.060Z,15.80
2018-10-06T18:38:44.942Z,15.80
2018-10-06T18:41:13.821Z,15.90
2018-10-06T18:43:42.973Z,15.90
2018-10-06T18:46:11.729Z,15.90
2018-10-06T18:48:40.618Z,15.90
2018-10-06T18:51:09.571Z,16.00
2018-10-06T18:53:38.434Z,15.90
2018-10-06T18:56:07.333Z,15.90
2018-10-06T18:58:36.222Z,15.90
2018-10-06T19:01:05.224Z,15.80
2018-10-06T19:03:34.393Z,15.70
2018-10-06T19:06:03.206Z,15.70
2018-10-06T19:08:32.101Z,15.70
2018-10-06T19:11:01.062Z,15.70
2018-10-06T19:13:30.098Z,15.80
2018-10-06T19:15:58.960Z,15.80
2018-10-06T19:18:27.781Z,15.80
2018-10-06T19:20:56.652Z,15.80
2018-10-06T19:23:25.585Z,15.90
2018-10-06T19:25:54.524Z,15.80
2018-10-06T19:28:23.496Z,15.80
2018-10-06T19:30:52.310Z,15.70
2018-10-06T19:33:21.323Z,15.60
2018-10-06T19:35:50.417Z,15.70
2018-10-06T19:38:19.421Z,15.70
2018-10-06T19:40:48.649Z,15.70
2018-10-06T19:43:17.538Z,15.70
2018-10-06T19:45:46.469Z,15.80
2018-10-06T19:48:15.326Z,15.90
2018-10-06T19:50:44.292Z,15.90
2018-10-06T19:53:13.426Z,16.00
2018-10-06T19:55:42.451Z,16.00
2018-10-06T19:58:13.748Z,16.10
2018-10-06T20:00:42.671Z,16.10
2018-10-06T20:03:12.330Z,16.10
2018-10-06T20:05:41.224Z,16.00
2018-10-06T20:08:11.052Z,15.90
2018-10-06T20:10:40.013Z,15.90
2018-10-06T20:13:08.877Z,15.80
2018-10-06T20:15:37.762Z,15.70
2018-10-06T20:18:06.801Z,15.60
2018-10-06T20:20:35.699Z,15.40
2018-10-06T20:23:06.365Z,15.30
2018-10-06T20:25:35.218Z,15.20
2018-10-06T20:28:04.047Z,15.20
2018-10-06T20:30:33.091Z,15.20
2018-10-06T20:33:02.105Z,15.10
2018-10-06T20:35:31.104Z,15.10
2018-10-06T20:37:59.990Z,15.10
2018-10-06T20:40:28.859Z,15.10
2018-10-06T20:42:57.710Z,15.20
2018-10-06T20:45:26.564Z,15.20
2018-10-06T20:47:55.447Z,15.20
2018-10-06T20:50:24.793Z,15.30
2018-10-06T20:52:54.249Z,15.40
2018-10-06T20:55:23.124Z,15.40
2018-10-06T20:57:52.195Z,15.40
2018-10-06T21:00:21.147Z,15.30
2018-10-06T21:02:49.963Z,15.20
2018-10-06T21:05:18.878Z,15.10
2018-10-06T21:07:47.771Z,15.00
2018-10-06T21:10:16.931Z,14.90
2018-10-06T21:12:45.819Z,14.80
2018-10-06T21:15:14.615Z,14.80
2018-10-06T21:17:43.487Z,14.70
2018-10-06T21:20:12.482Z,14.60
2018-10-06T21:22:41.388Z,14.50
2018-10-06T21:25:10.265Z,14.50
2018-10-06T21:27:39.123Z,14.50
2018-10-06T21:30:08.447Z,14.40
2018-10-06T21:32:37.288Z,14.30
2018-10-06T21:35:06.249Z,14.40
2018-10-06T21:37:35.417Z,14.40
2018-10-06T21:40:04.262Z,14.40
2018-10-06T21:42:33.982Z,14.20
2018-10-06T21:45:02.877Z,14.20
2018-10-06T21:47:31.736Z,14.20
2018-10-06T21:50:00.574Z,14.20
2018-10-06T21:52:29.554Z,14.10
2018-10-06T21:55:03.324Z,14.10
2018-10-06T21:57:32.153Z,14.20
2018-10-06T22:00:01.198Z,14.20
2018-10-06T22:02:30.537Z,14.10
2018-10-06T22:04:59.438Z,14.10
2018-10-06T22:07:28.256Z,14.10
2018-10-06T22:09:57.111Z,14.10
2018-10-06T22:12:25.964Z,14.10
2018-10-06T22:14:54.825Z,14.00
2018-10-06T22:17:23.657Z,14.00
2018-10-06T22:19:52.546Z,14.10
2018-10-06T22:22:21.330Z,14.10
2018-10-06T22:24:50.262Z,14.10
2018-10-06T22:27:19.178Z,14.10
2018-10-06T22:29:48.468Z,14.10
2018-10-06T22:32:17.599Z,14.10
2018-10-06T22:34:46.571Z,14.10
2018-10-06T22:37:15.482Z,14.10
2018-10-06T22:39:44.282Z,14.10
2018-10-06T22:42:13.082Z,14.10
2018-10-06T22:44:41.970Z,14.10
2018-10-06T22:47:10.799Z,14.10
2018-10-06T22:49:39.621Z,14.00
2018-10-06T22:52:08.536Z,14.00
2018-10-06T22:54:37.411Z,13.90
2018-10-06T22:57:06.639Z,13.80
2018-10-06T22:59:35.655Z,13.80
2018-10-06T23:02:04.534Z,13.90
2018-10-06T23:04:33.333Z,13.80
2018-10-06T23:07:02.180Z,13.70
2018-10-06T23:09:31.022Z,13.60
2018-10-06T23:12:00.316Z,13.60
2018-10-06T23:14:29.126Z,13.50
2018-10-06T23:16:57.936Z,13.50
2018-10-06T23:19:26.848Z,13.50
2018-10-06T23:21:55.720Z,13.50
2018-10-06T23:24:24.571Z,13.50
2018-10-06T23:26:53.551Z,13.50
2018-10-06T23:29:22.407Z,13.50
2018-10-06T23:31:51.351Z,13.60
2018-10-06T23:34:20.327Z,13.60
2018-10-06T23:36:49.367Z,13.50
2018-10-06T23:39:18.515Z,13.50
2018-10-06T23:41:47.632Z,13.50
2018-10-06T23:44:16.622Z,13.50
2018-10-06T23:46:45.704Z,13.50
2018-10-06T23:49:14.619Z,13.60
2018-10-06T23:51:43.957Z,13.60
2018-10-06T23:54:12.794Z,13.60
2018-10-06T23:56:41.709Z,13.60
2018-10-06T23:59:10.482Z,13.70
